KPWTKCLM

Guest
Details From KPWT - Bremerton National
To KCLM - William R Fairchild Intl
Flight Number -
Tags Routegen
Created
Modified
Stats Distance 49 nm / 90 km
Max Altitude 0 ft / 0 m
Waypoints 2
Social Downloads 4
Likes 0
Share VATSIM

Download

Looking for another format? Having issues loading an existing format? Contact us
Advertisement - Login to hide

Notes

None

Route

KPWT KCLM

ID Type Via Altitude (ft/m) Position (lat/lon) Dist (leg/tot) Name
O KPWT APT - 0 / 0 47.48333 / -122.77138 - / 0 nm
O KCLM APT - 0 / 0 48.12104 / -123.51152 48 / 48 nm

Altitude Profile

Advertisement - Login to hide

KPWT

Details ICAO KPWT (PWT)
Name Bremerton National
Region United States
Timezone America/Los_Angeles (UTC-7.0)
Stats Elevation 444 ft / 135 m (AMSL)
Location 47.490200° -122.765000°
Runways 1
Magnetic Variation 15.654° E

METAR

KPWT 221823Z AUTO 1/2SM FG OVC003 08/08 A2998 RMK AO2

Decode

TAF

TAF KPWT 221725Z 2218/2318 00000KT 1/4SM FG VV001 FM222000 03003KT 1SM BR OVC003 FM222100 03003KT P6SM BKN007 FM222200 03003KT P6SM FEW012 FM230400 03003KT 2SM BR SCT001 FM230800 VRB03KT 1/4SM FG VV001 FM231500 15006KT 2SM BR BKN006 FM231700 16007KT P6SM FEW012

Decode

Departure Runways

ID Width Length Bearing (true/mag) Surface Threshold Overrun Markings Lighting
01 151 ft / 46 m 5,997 ft / 1,828 m 32.69° / 17.03° ASPHALT 0 ft / 0 m 0 ft / 0 m APP EDGE THRESHOLD
19 151 ft / 46 m 5,997 ft / 1,828 m 212.70° / 197.04° ASPHALT 0 ft / 0 m 1,243 ft / 379 m PREC-APP EDGE THRESHOLD MALSR

KCLM

Details ICAO KCLM (CLM)
Name WILLIAM R FAIRCHILD INTL
Region United States
Timezone America/Los_Angeles (UTC-7.0)
Stats Elevation 291 ft / 89 m (AMSL)
Location 48.120800° -123.500000°
Runways 2
Magnetic Variation 15.927° E

METAR

KCLM 221753Z AUTO 01003KT 7SM CLR 10/07 A2999 RMK AO2 SLP157 T01000072 10111 20011 50001

Decode

TAF

KCLM 221725Z 2218/2318 VRB03KT 6SM HZ BR FEW005 FM222000 VRB03KT P6SM SKC

Decode

Destination Runways

ID Width Length Bearing (true/mag) Surface Threshold Overrun Markings Lighting
08 151 ft / 46 m 6,353 ft / 1,936 m 104.61° / 88.69° ASPHALT 0 ft / 0 m 0 ft / 0 m PREC-APP EDGE THRESHOLD MALSR
13 49 ft / 15 m 3,244 ft / 989 m 147.64° / 131.71° ASPHALT 0 ft / 0 m 0 ft / 0 m APP EDGE THRESHOLD
26 151 ft / 46 m 6,353 ft / 1,936 m 284.63° / 268.71° ASPHALT 1,355 ft / 413 m 0 ft / 0 m APP EDGE THRESHOLD REIL-OMNI
31 49 ft / 15 m 3,244 ft / 989 m 327.64° / 311.72° ASPHALT 0 ft / 0 m 0 ft / 0 m APP EDGE THRESHOLD

Approach Navaids

Runway Type Ident Frequency Range Bearing (true/mag) Slope Elevation
08 OM OM - - 104.62° / 88.70 ° - 1,069 ft / 326 m (AMSL)
08 MM MM - - 104.62° / 88.70 ° - 291 ft / 89 m (AMSL)
08 GS ICLM 108.90 MHz 10 nm / 19 km 105.25° / 89.32 ° 3.00° 281 ft / 86 m (AMSL)
08 LOC-ILS ICLM 108.90 MHz 18 nm / 33 km 104.64° / 88.71 ° - 291 ft / 89 m (AMSL)

Popular Alternatives